This is the latest recevied weather packets stored in our database for station/object GBTWP-2. If no packets are shown the sender has not sent any weather packets the latest 10 day(s).
| Time | Temp. | Humidity | Pressure | Rain* | Wind** | Luminosity | Snow |
|---|---|---|---|---|---|---|---|
| 1777746602 | 7.78° C | 47% | 1019.8 hPa | 0 mm | - | 172 W/m² | - |
| 1777746302 | 7.78° C | 51% | 1019.8 hPa | 0 mm | - | 128 W/m² | - |
| 1777746002 | 7.22° C | 51% | 1019.8 hPa | 0 mm | - | 88 W/m² | - |
| 1777745701 | 7.78° C | 49% | 1019.6 hPa | 0 mm | - | 98 W/m² | - |
| 1777745402 | 7.78° C | 47% | 1019.6 hPa | 0 mm | - | 117 W/m² | - |
| 1777745101 | 7.78° C | 51% | 1019.7 hPa | 0 mm | - | 194 W/m² | - |
| 1777744802 | 7.78° C | 49% | 1019.9 hPa | 0 mm | - | 127 W/m² | - |
| 1777744202 | 7.78° C | 49% | 1019.9 hPa | 0 mm | - | 153 W/m² | - |
| 1777743902 | 7.22° C | 49% | 1019.9 hPa | 0 mm | - | 124 W/m² | - |
| 1777743302 | 7.78° C | 49% | 1020 hPa | 0 mm | - | 396 W/m² | - |
| 1777742702 | 6.67° C | 51% | 1020 hPa | 0 mm | - | 117 W/m² | - |
| 1777741502 | 7.78° C | 48% | 1020.1 hPa | 0 mm | - | 98 W/m² | - |
| 1777741201 | 7.78° C | 46% | 1020.1 hPa | 0 mm | - | 145 W/m² | - |
| 1777740902 | 7.22° C | 50% | 1020.2 hPa | 0 mm | - | 127 W/m² | - |
| 1777740602 | 6.67° C | 52% | 1020.2 hPa | 0 mm | - | 115 W/m² | - |
| 1777739402 | 6.67° C | 48% | 1020.2 hPa | 0 mm | - | 149 W/m² | - |
| 1777739102 | 6.67° C | 49% | 1020.4 hPa | 0 mm | - | 87 W/m² | - |
| 1777738502 | 7.22° C | 49% | 1020.3 hPa | 0 mm | - | 123 W/m² | - |
| 1777738201 | 6.67° C | 50% | 1020.4 hPa | 0 mm | - | 122 W/m² | - |
| 1777737902 | 6.67° C | 50% | 1020.2 hPa | 0 mm | - | 111 W/m² | - |
| 1777737001 | 7.78° C | 45% | 1020.4 hPa | 0 mm | - | 123 W/m² | - |
| 1777736102 | 6.67° C | 48% | 1020.3 hPa | 0 mm | - | 202 W/m² | - |
| 1777735801 | 6.11° C | 50% | 1020.4 hPa | 0 mm | - | 248 W/m² | - |
| 1777735503 | 7.22° C | 49% | 1020.2 hPa | 0 mm | - | 66 W/m² | - |
| 1777735202 | 6.67° C | 53% | 1020.3 hPa | 0 mm | - | 101 W/m² | - |
* Rain latest hour (hover to see other rain measurements)
** Current wind speed in m/s (hover to see current wind gust speed)